Time;durP1;ratioP1;P1;durP2;ratioP2;P2;SDS_P1;SDS_P2;PMS_P1;PMS_P2;Temp;Humidity;BMP_temperature;BMP_pressure;BME280_temperature;BME280_humidity;BME280_pressure;Samples;Min_cycle;Max_cycle;Signal;HPM_P1;HPM_P2
2022/03/27 00:00:40;;;;;;;29.65;15.65;;;8.20;58.00;;;;;;5045618;28;20083;-79
2022/03/27 00:03:06;;;;;;;28.92;15.75;;;8.20;58.10;;;;;;5040768;28;20029;-78
2022/03/27 00:05:33;;;;;;;25.52;14.90;;;8.20;58.30;;;;;;5040431;28;20041;-80
2022/03/27 00:07:59;;;;;;;27.05;14.88;;;8.20;58.40;;;;;;5038489;28;20801;-79
2022/03/27 00:10:26;;;;;;;25.30;14.00;;;8.20;58.50;;;;;;5052259;28;20032;-79
2022/03/27 00:12:52;;;;;;;25.38;14.10;;;8.20;58.70;;;;;;5059642;28;20063;-78
2022/03/27 00:15:17;;;;;;;26.08;14.60;;;8.10;58.90;;;;;;5054558;28;20075;-80
2022/03/27 00:17:44;;;;;;;26.13;14.40;;;8.00;59.10;;;;;;5055784;28;20025;-80
2022/03/27 00:20:12;;;;;;;26.00;14.05;;;8.00;59.40;;;;;;5060686;28;20093;-80
2022/03/27 00:22:38;;;;;;;26.98;15.00;;;8.00;59.70;;;;;;5060204;28;20022;-78
2022/03/27 00:25:06;;;;;;;31.90;16.17;;;7.90;59.90;;;;;;5060336;28;20013;-79
2022/03/27 00:27:33;;;;;;;27.90;15.95;;;8.00;63.40;;;;;;5060046;28;20076;-79
2022/03/27 00:30:00;;;;;;;27.30;15.35;;;;;;;;;;5060918;28;20028;-79
2022/03/27 00:32:25;;;;;;;28.00;15.57;;;7.70;60.20;;;;;;5064848;28;20035;-79
2022/03/27 00:34:53;;;;;;;28.50;16.58;;;7.80;61.30;;;;;;5053002;28;20144;-79
2022/03/27 00:37:19;;;;;;;29.33;16.63;;;7.80;61.60;;;;;;5059859;28;20020;-80
2022/03/27 00:39:45;;;;;;;35.78;18.50;;;7.70;61.60;;;;;;5058879;28;20030;-78
2022/03/27 00:42:11;;;;;;;32.35;18.05;;;7.70;61.60;;;;;;5060967;28;20024;-79
2022/03/27 00:44:38;;;;;;;35.53;17.67;;;7.70;61.70;;;;;;5053914;28;20036;-79
2022/03/27 00:47:08;;;;;;;32.53;17.88;;;7.70;62.10;;;;;;5056518;28;20051;-80
2022/03/27 00:49:34;;;;;;;36.20;17.98;;;7.60;62.50;;;;;;5052686;28;20025;-79
2022/03/27 00:52:01;;;;;;;28.17;15.75;;;7.60;63.30;;;;;;5059316;28;20021;-78
2022/03/27 00:54:27;;;;;;;31.25;15.70;;;7.50;64.20;;;;;;5056624;28;20029;-78
2022/03/27 00:56:52;;;;;;;28.05;15.65;;;7.60;64.00;;;;;;5040548;28;20163;-78
2022/03/27 00:59:18;;;;;;;30.20;17.13;;;7.50;64.30;;;;;;5052465;28;20139;-79
2022/03/27 01:01:44;;;;;;;27.73;15.88;;;7.50;64.50;;;;;;5051278;28;20037;-78
2022/03/27 01:04:11;;;;;;;25.92;13.80;;;7.40;64.60;;;;;;5059807;28;20040;-78
2022/03/27 01:06:43;;;;;;;28.95;15.50;;;7.40;64.90;;;;;;5059601;28;20085;-78
2022/03/27 01:11:55;;;;;;;23.85;13.82;;;7.30;64.60;;;;;;5062404;28;20576;-78
2022/03/27 01:14:32;;;;;;;21.85;13.75;;;7.30;64.60;;;;;;5052635;28;20052;-79
2022/03/27 01:17:01;;;;;;;24.90;13.73;;;7.30;64.60;;;;;;5035650;28;20080;-78
2022/03/27 01:19:28;;;;;;;23.50;13.32;;;7.30;64.60;;;;;;5041529;28;20035;-79
2022/03/27 01:21:54;;;;;;;24.08;13.65;;;7.30;65.00;;;;;;5056912;28;20021;-79
2022/03/27 01:24:21;;;;;;;22.80;12.82;;;7.30;65.20;;;;;;5043779;28;20068;-78
2022/03/27 01:26:47;;;;;;;21.58;12.98;;;7.20;65.20;;;;;;5058003;28;20059;-78
2022/03/27 01:29:13;;;;;;;25.40;13.27;;;7.20;65.50;;;;;;5057011;28;20021;-78
2022/03/27 01:31:38;;;;;;;23.20;12.77;;;7.20;65.80;;;;;;5046764;28;20552;-78
2022/03/27 01:34:05;;;;;;;25.08;13.80;;;7.20;66.20;;;;;;5060212;28;20428;-78
2022/03/27 01:36:36;;;;;;;21.27;11.90;;;7.30;66.70;;;;;;5060677;28;20033;-78
2022/03/27 01:39:11;;;;;;;22.58;12.95;;;7.20;66.80;;;;;;5060917;28;20052;-79
2022/03/27 01:41:38;;;;;;;23.90;13.38;;;7.20;67.10;;;;;;5059674;28;20029;-79
2022/03/27 01:44:11;;;;;;;22.42;12.70;;;7.20;68.00;;;;;;5050924;28;20035;-78
2022/03/27 01:46:39;;;;;;;23.58;13.15;;;7.20;67.50;;;;;;5042110;28;20009;-79
2022/03/27 01:49:07;;;;;;;20.13;12.45;;;7.20;67.50;;;;;;5039700;28;20458;-79
2022/03/27 01:51:33;;;;;;;21.75;12.60;;;7.10;67.40;;;;;;5057989;28;20028;-79
2022/03/27 01:54:00;;;;;;;24.05;13.38;;;7.10;67.40;;;;;;5062963;28;20083;-79
2022/03/27 01:56:26;;;;;;;20.27;12.40;;;7.00;67.60;;;;;;5061207;28;20089;-79
2022/03/27 01:58:52;;;;;;;23.25;13.10;;;7.00;68.00;;;;;;5057710;28;20531;-79
2022/03/27 02:01:19;;;;;;;21.58;12.15;;;7.00;68.10;;;;;;5056001;28;20423;-79
2022/03/27 02:03:46;;;;;;;22.05;12.48;;;7.00;68.30;;;;;;5059450;28;20550;-78
2022/03/27 02:06:12;;;;;;;20.02;12.00;;;7.00;68.40;;;;;;5047453;28;20029;-78
2022/03/27 02:08:39;;;;;;;21.88;12.77;;;6.90;68.50;;;;;;5035716;28;20060;-78
2022/03/27 02:11:05;;;;;;;22.05;13.02;;;6.90;68.60;;;;;;5042846;28;20076;-77
2022/03/27 02:13:32;;;;;;;24.65;13.45;;;6.90;69.30;;;;;;5065200;28;20039;-78
2022/03/27 02:15:58;;;;;;;21.75;13.35;;;6.80;68.50;;;;;;5060787;28;20108;-77
2022/03/27 02:18:29;;;;;;;24.45;13.43;;;6.70;68.40;;;;;;5040279;28;20030;-78
2022/03/27 02:20:55;;;;;;;23.00;13.43;;;6.70;68.50;;;;;;5038302;28;20044;-78
2022/03/27 02:23:24;;;;;;;25.02;14.75;;;6.70;68.50;;;;;;5035646;28;20025;-78
2022/03/27 02:25:51;;;;;;;22.42;12.82;;;6.60;68.30;;;;;;5037568;28;20029;-77
2022/03/27 02:28:17;;;;;;;23.13;13.52;;;6.60;68.20;;;;;;5038121;28;20029;-78
2022/03/27 02:30:43;;;;;;;22.27;13.50;;;6.60;68.20;;;;;;5051396;28;20484;-77
2022/03/27 02:33:09;;;;;;;20.67;12.52;;;6.60;68.10;;;;;;5067655;28;20053;-78
2022/03/27 02:35:35;;;;;;;20.48;11.95;;;6.60;68.20;;;;;;5065229;28;20041;-78
2022/03/27 02:38:05;;;;;;;23.48;12.30;;;6.70;68.40;;;;;;5068766;28;20056;-78
2022/03/27 02:40:35;;;;;;;21.88;12.25;;;6.60;68.50;;;;;;5077562;28;20037;-79
2022/03/27 02:43:01;;;;;;;21.42;13.05;;;6.60;69.30;;;;;;5076688;28;20040;-78
2022/03/27 02:45:28;;;;;;;22.48;12.15;;;6.60;69.00;;;;;;5053668;28;20029;-78
2022/03/27 02:47:57;;;;;;;22.90;12.35;;;6.60;69.00;;;;;;5046919;28;20018;-78
2022/03/27 02:50:24;;;;;;;23.02;12.88;;;6.50;68.90;;;;;;5045249;28;20030;-78
2022/03/27 02:52:53;;;;;;;23.40;13.00;;;6.50;69.20;;;;;;5041030;28;20044;-78
2022/03/27 02:55:20;;;;;;;22.95;12.90;;;6.40;70.00;;;;;;5048557;28;20024;-78
2022/03/27 02:57:46;;;;;;;22.60;13.70;;;6.40;69.60;;;;;;5066958;28;20092;-77
2022/03/27 03:00:12;;;;;;;21.92;13.50;;;6.30;69.70;;;;;;5037044;28;20048;-78
2022/03/27 03:02:38;;;;;;;25.05;14.25;;;6.30;69.60;;;;;;5049707;28;20059;-78
2022/03/27 03:05:08;;;;;;;25.23;13.52;;;6.30;69.50;;;;;;5058037;28;20029;-78
2022/03/27 03:07:34;;;;;;;23.02;13.07;;;6.20;69.00;;;;;;5051250;28;20022;-79
2022/03/27 03:10:02;;;;;;;24.77;13.90;;;6.20;68.50;;;;;;5048516;28;20037;-78
2022/03/27 03:12:28;;;;;;;23.48;13.52;;;6.20;68.20;;;;;;5042585;28;20440;-78
2022/03/27 03:14:56;;;;;;;21.48;12.77;;;6.10;67.90;;;;;;5049421;28;20021;-78
2022/03/27 03:17:23;;;;;;;28.23;14.98;;;6.10;67.80;;;;;;5054392;28;20017;-77
2022/03/27 03:19:49;;;;;;;26.92;14.65;;;6.10;67.70;;;;;;5049744;28;20052;-78
2022/03/27 03:22:15;;;;;;;23.95;13.98;;;6.00;67.60;;;;;;5036441;28;20029;-78
2022/03/27 03:24:41;;;;;;;25.95;13.68;;;6.00;67.50;;;;;;5040295;28;20037;-79
2022/03/27 03:27:07;;;;;;;23.55;13.55;;;5.90;67.50;;;;;;5055291;28;20017;-78
2022/03/27 03:29:33;;;;;;;22.98;12.52;;;5.90;67.80;;;;;;5053309;28;20029;-78
2022/03/27 03:31:59;;;;;;;25.48;13.15;;;5.90;67.90;;;;;;5051551;28;20048;-79
2022/03/27 03:34:25;;;;;;;21.23;12.88;;;5.90;67.90;;;;;;5050729;28;20025;-78
2022/03/27 03:36:51;;;;;;;23.60;12.52;;;5.80;67.90;;;;;;5065579;28;20025;-79
2022/03/27 03:39:16;;;;;;;27.10;13.60;;;5.80;68.00;;;;;;5053353;28;20033;-78
2022/03/27 03:41:42;;;;;;;22.83;13.35;;;5.80;68.30;;;;;;5049827;28;20084;-78
2022/03/27 03:44:08;;;;;;;25.38;14.52;;;5.70;68.40;;;;;;5051906;28;20363;-78
2022/03/27 03:46:34;;;;;;;25.58;13.88;;;5.70;68.70;;;;;;5035860;28;20084;-78
2022/03/27 03:49:00;;;;;;;24.70;13.82;;;5.60;68.90;;;;;;5040995;28;20029;-77
2022/03/27 03:51:26;;;;;;;22.88;13.50;;;5.60;68.80;;;;;;5060722;28;20079;-79
2022/03/27 03:53:52;;;;;;;24.65;13.75;;;5.60;68.80;;;;;;5070568;28;20021;-80
2022/03/27 03:56:18;;;;;;;27.42;15.00;;;5.60;68.70;;;;;;5072877;28;20025;-80
2022/03/27 03:58:43;;;;;;;29.25;15.13;;;5.60;68.70;;;;;;5075837;28;20025;-79
2022/03/27 04:01:09;;;;;;;27.45;14.73;;;5.60;68.50;;;;;;5076533;28;20033;-77
2022/03/27 04:03:35;;;;;;;24.15;13.65;;;5.50;68.20;;;;;;5076250;28;20040;-78
2022/03/27 04:06:01;;;;;;;22.63;13.55;;;5.50;68.10;;;;;;5076470;28;20044;-78
2022/03/27 04:08:26;;;;;;;27.70;14.05;;;5.40;68.20;;;;;;5067606;28;20462;-78
2022/03/27 04:10:52;;;;;;;22.75;13.88;;;5.40;68.40;;;;;;5052742;28;20481;-78
2022/03/27 04:13:18;;;;;;;23.20;13.77;;;5.40;68.50;;;;;;5050886;28;20044;-78
2022/03/27 04:15:43;;;;;;;22.25;12.70;;;5.40;68.60;;;;;;5058148;28;20029;-78
2022/03/27 04:18:09;;;;;;;21.52;12.52;;;5.40;68.50;;;;;;5059958;28;20025;-78
2022/03/27 04:20:35;;;;;;;22.42;13.25;;;5.40;68.40;;;;;;5054381;28;20029;-78
2022/03/27 04:23:01;;;;;;;18.13;11.25;;;5.40;68.40;;;;;;5056101;28;20032;-78
2022/03/27 04:25:27;;;;;;;22.58;12.75;;;5.30;68.30;;;;;;5063886;28;20385;-78
2022/03/27 04:27:52;;;;;;;25.35;13.60;;;5.30;68.30;;;;;;5055409;28;20029;-78
2022/03/27 04:30:18;;;;;;;25.23;13.23;;;5.30;68.30;;;;;;5059757;28;20025;-78
2022/03/27 04:32:44;;;;;;;24.30;13.48;;;5.30;68.60;;;;;;5043049;28;20022;-78
2022/03/27 04:35:10;;;;;;;21.92;12.50;;;5.30;68.60;;;;;;5041773;28;20021;-78
2022/03/27 04:37:43;;;;;;;20.90;12.32;;;5.20;68.60;;;;;;5049709;28;20032;-78
2022/03/27 04:40:13;;;;;;;25.23;12.95;;;5.20;68.70;;;;;;5042435;28;20128;-78
2022/03/27 04:42:42;;;;;;;22.58;13.00;;;5.20;69.00;;;;;;5035565;28;20299;-77
2022/03/27 04:45:09;;;;;;;24.67;12.85;;;5.20;69.10;;;;;;5043071;28;20041;-77
2022/03/27 04:47:35;;;;;;;22.58;12.32;;;5.20;69.10;;;;;;5051713;28;20029;-77
2022/03/27 04:50:02;;;;;;;27.08;14.10;;;5.20;69.00;;;;;;5053294;28;20043;-78
2022/03/27 04:52:27;;;;;;;24.05;13.48;;;5.10;69.10;;;;;;5057595;28;20033;-80
2022/03/27 04:54:53;;;;;;;22.77;12.98;;;5.10;69.20;;;;;;5057134;28;20048;-78
2022/03/27 04:57:21;;;;;;;24.30;14.55;;;5.10;69.00;;;;;;5052060;28;20025;-78
2022/03/27 04:59:47;;;;;;;22.50;13.63;;;5.00;69.00;;;;;;5053007;28;20048;-78
2022/03/27 05:02:13;;;;;;;24.15;13.13;;;5.00;69.10;;;;;;5054599;28;20104;-79
2022/03/27 05:04:41;;;;;;;23.73;13.68;;;5.00;69.30;;;;;;5054706;28;20461;-78
2022/03/27 05:07:07;;;;;;;24.42;13.13;;;5.00;69.30;;;;;;5038350;28;20022;-79
2022/03/27 05:09:33;;;;;;;22.70;12.40;;;5.00;69.40;;;;;;5044981;28;20030;-79
2022/03/27 05:11:59;;;;;;;22.45;12.75;;;5.00;69.50;;;;;;5040419;28;20021;-79
2022/03/27 05:14:24;;;;;;;19.73;11.57;;;5.00;69.40;;;;;;5049258;28;20079;-78
2022/03/27 05:16:50;;;;;;;21.25;12.00;;;5.00;69.40;;;;;;5072406;28;20013;-79
2022/03/27 05:19:17;;;;;;;21.60;11.85;;;5.00;69.50;;;;;;5075232;28;20028;-79
2022/03/27 05:21:43;;;;;;;20.58;11.70;;;5.10;69.60;;;;;;5066152;28;20017;-79
2022/03/27 05:24:09;;;;;;;20.45;11.18;;;5.10;69.50;;;;;;5054830;28;20021;-78
2022/03/27 05:26:36;;;;;;;20.60;10.98;;;5.20;69.40;;;;;;5061217;28;20028;-79
2022/03/27 05:29:08;;;;;;;19.08;10.65;;;5.30;69.30;;;;;;5059426;28;20474;-78
2022/03/27 05:31:34;;;;;;;19.30;10.90;;;5.30;69.10;;;;;;5052946;28;20126;-78
2022/03/27 05:34:00;;;;;;;19.17;10.80;;;5.40;69.30;;;;;;5035772;28;20033;-78
2022/03/27 05:36:26;;;;;;;19.77;11.13;;;5.40;69.50;;;;;;5039397;28;20032;-77
2022/03/27 05:38:52;;;;;;;19.42;11.30;;;5.50;69.80;;;;;;5033974;28;20120;-77
2022/03/27 05:41:18;;;;;;;20.83;12.55;;;5.50;70.00;;;;;;5035667;28;20033;-77
2022/03/27 05:43:44;;;;;;;20.45;11.63;;;5.60;70.00;;;;;;5050171;22;20060;-84
2022/03/27 05:46:10;;;;;;;19.60;10.45;;;5.60;70.10;;;;;;5050568;28;20084;-85
2022/03/27 05:48:36;;;;;;;19.02;11.00;;;5.70;69.90;;;;;;5042762;28;20105;-80
2022/03/27 05:51:02;;;;;;;17.60;10.65;;;5.70;69.70;;;;;;5056275;28;20048;-81
2022/03/27 05:53:29;;;;;;;19.77;11.30;;;5.70;69.30;;;;;;5045102;28;20037;-84
2022/03/27 05:55:57;;;;;;;17.02;10.80;;;5.70;69.00;;;;;;5017829;28;20061;-83
2022/03/27 05:58:23;;;;;;;17.88;10.27;;;5.80;69.20;;;;;;5030977;28;20095;-82
2022/03/27 06:00:51;;;;;;;18.05;11.07;;;5.80;69.20;;;;;;5037242;28;20069;-80
2022/03/27 06:03:16;;;;;;;18.25;11.20;;;5.90;69.10;;;;;;5027151;28;20096;-85
2022/03/27 06:05:42;;;;;;;23.27;11.75;;;5.90;68.90;;;;;;5036776;28;20025;-82
2022/03/27 06:08:09;;;;;;;18.95;10.75;;;6.00;68.70;;;;;;5036537;28;20030;-85
2022/03/27 06:10:35;;;;;;;18.85;11.80;;;6.00;68.60;;;;;;5031107;28;20203;-84
2022/03/27 06:13:02;;;;;;;21.40;11.48;;;6.10;68.20;;;;;;5020837;28;20018;-83
2022/03/27 06:15:29;;;;;;;21.30;12.52;;;6.20;68.60;;;;;;5027352;28;20022;-84
2022/03/27 06:17:56;;;;;;;20.15;12.45;;;6.20;67.70;;;;;;5028649;28;20022;-83
2022/03/27 06:20:27;;;;;;;21.42;12.52;;;6.30;67.50;;;;;;5017027;28;20041;-85
2022/03/27 06:22:53;;;;;;;24.83;11.68;;;6.30;67.20;;;;;;5018588;28;20030;-84
2022/03/27 06:25:24;;;;;;;19.98;11.25;;;6.40;66.80;;;;;;5020446;28;20049;-84
2022/03/27 06:27:50;;;;;;;19.83;10.60;;;6.50;66.30;;;;;;5017271;28;20030;-85
2022/03/27 06:30:18;;;;;;;18.85;10.77;;;6.60;65.90;;;;;;5017042;28;20442;-84
2022/03/27 06:32:45;;;;;;;16.58;10.57;;;6.70;65.80;;;;;;5015567;28;20386;-85
2022/03/27 06:35:13;;;;;;;16.85;9.73;;;6.70;65.40;;;;;;5017384;28;20081;-85
2022/03/27 06:37:39;;;;;;;18.48;10.57;;;6.90;65.20;;;;;;5032938;28;20016;-82
2022/03/27 06:40:07;;;;;;;18.55;10.88;;;7.00;64.60;;;;;;5035606;28;20045;-82
2022/03/27 06:42:33;;;;;;;19.58;11.82;;;7.00;64.60;;;;;;5034324;28;20045;-81
2022/03/27 06:44:59;;;;;;;16.63;10.52;;;7.10;64.50;;;;;;5047738;28;20037;-85
2022/03/27 06:47:27;;;;;;;21.13;10.80;;;7.30;64.30;;;;;;5024957;28;20026;-85
2022/03/27 06:49:57;;;;;;;17.98;10.60;;;7.40;64.00;;;;;;5020397;28;20044;-85
2022/03/27 06:52:25;;;;;;;22.40;12.02;;;7.50;63.80;;;;;;5036480;28;20037;-84
2022/03/27 06:54:51;;;;;;;24.13;13.82;;;7.60;63.50;;;;;;5033307;28;20033;-84
2022/03/27 06:57:16;;;;;;;23.05;12.98;;;7.80;63.10;;;;;;5035374;28;20024;-84
2022/03/27 07:05:12;;;;;;;30.15;16.45;;;8.30;61.80;;;;;;5017324;28;20084;-84
2022/03/27 07:07:38;;;;;;;29.05;16.65;;;8.40;61.30;;;;;;5016612;28;20499;-85
2022/03/27 07:10:05;;;;;;;31.48;17.08;;;8.40;61.00;;;;;;5016890;28;20442;-85
2022/03/27 07:12:31;;;;;;;26.05;14.38;;;8.50;60.70;;;;;;5026820;28;20079;-85
2022/03/27 07:14:57;;;;;;;25.85;15.00;;;8.60;60.40;;;;;;5023647;28;20030;-83
2022/03/27 07:17:23;;;;;;;22.88;13.32;;;8.80;60.10;;;;;;5034476;28;20041;-84
2022/03/27 07:19:48;;;;;;;21.27;12.38;;;9.00;60.10;;;;;;5034867;28;20037;-84
2022/03/27 07:22:14;;;;;;;27.85;16.17;;;9.10;59.70;;;;;;5031386;28;20393;-85
2022/03/27 07:24:41;;;;;;;30.23;16.90;;;9.10;59.40;;;;;;5018834;28;20485;-85
2022/03/27 07:27:08;;;;;;;27.83;16.23;;;9.20;59.30;;;;;;5035743;28;20028;-84
2022/03/27 07:29:35;;;;;;;34.85;18.17;;;9.20;58.80;;;;;;5029660;28;20033;-84
2022/03/27 07:32:11;;;;;;;27.13;16.77;;;9.20;59.00;;;;;;5024126;28;20029;-83
2022/03/27 07:34:40;;;;;;;29.30;17.42;;;9.30;58.90;;;;;;5037689;28;20030;-84
2022/03/27 07:37:08;;;;;;;26.38;14.35;;;9.50;58.90;;;;;;5045408;28;20029;-83
2022/03/27 07:39:34;;;;;;;26.70;15.57;;;9.70;58.70;;;;;;5030779;28;20080;-82
2022/03/27 07:42:00;;;;;;;25.25;14.70;;;9.80;58.20;;;;;;5015687;28;20029;-84
2022/03/27 07:44:26;;;;;;;33.40;16.63;;;10.00;57.80;;;;;;5029453;28;20474;-83
2022/03/27 07:46:56;;;;;;;26.60;16.00;;;10.10;57.20;;;;;;5043266;28;20029;-83
2022/03/27 07:49:23;;;;;;;26.38;15.40;;;10.20;57.40;;;;;;5032207;28;20049;-84
2022/03/27 07:51:49;;;;;;;26.83;14.80;;;10.40;57.30;;;;;;5030272;28;20085;-83
2022/03/27 07:54:15;;;;;;;23.30;13.82;;;10.50;56.90;;;;;;5036700;28;20055;-82
2022/03/27 07:56:41;;;;;;;27.88;15.85;;;10.60;56.50;;;;;;5043535;28;20406;-84
2022/03/27 07:59:06;;;;;;;25.63;14.48;;;10.80;55.90;;;;;;5014501;28;20034;-83
2022/03/27 08:01:32;;;;;;;29.35;16.13;;;10.90;55.60;;;;;;5016909;28;20033;-84
2022/03/27 08:03:59;;;;;;;28.67;17.45;;;11.00;55.40;;;;;;5027174;28;20052;-84
2022/03/27 08:06:25;;;;;;;26.40;15.02;;;11.10;54.70;;;;;;5016542;28;20116;-84
2022/03/27 08:08:51;;;;;;;21.90;13.70;;;11.20;54.90;;;;;;5015616;28;20478;-84
2022/03/27 08:11:17;;;;;;;22.23;14.30;;;11.50;54.90;;;;;;5034373;28;20026;-85
2022/03/27 08:13:43;;;;;;;18.17;12.23;;;11.80;54.40;;;;;;5036849;28;20036;-84
2022/03/27 08:16:09;;;;;;;21.40;13.23;;;12.20;53.60;;;;;;5024644;28;20416;-83
2022/03/27 08:18:35;;;;;;;21.77;12.93;;;12.40;52.80;;;;;;5015837;28;20080;-84
2022/03/27 08:21:00;;;;;;;24.00;15.30;;;12.60;52.20;;;;;;5032000;28;20469;-83
2022/03/27 08:23:26;;;;;;;22.17;14.30;;;12.60;51.90;;;;;;5038923;28;20060;-82
2022/03/27 08:28:36;;;;;;;25.83;15.88;;;12.80;51.70;;;;;;5034386;28;20091;-84
2022/03/27 08:31:02;;;;;;;23.92;14.77;;;12.90;51.50;;;;;;5022652;28;20061;-86
2022/03/27 08:33:30;;;;;;;25.20;15.23;;;13.10;50.70;;;;;;5032410;28;20077;-83
2022/03/27 08:35:57;;;;;;;24.58;15.90;;;13.20;50.80;;;;;;5025406;28;20086;-85
2022/03/27 08:38:26;;;;;;;24.70;15.13;;;13.30;50.10;;;;;;5044255;28;20021;-85
2022/03/27 08:40:55;;;;;;;23.50;14.80;;;13.40;50.20;;;;;;5044805;28;20340;-84
2022/03/27 08:43:22;;;;;;;22.42;13.95;;;13.70;50.00;;;;;;5029099;28;20021;-84
2022/03/27 08:45:48;;;;;;;21.00;13.30;;;14.10;49.50;;;;;;5034353;28;20470;-84
2022/03/27 08:48:15;;;;;;;22.55;14.82;;;14.40;48.70;;;;;;5029033;28;20025;-83
2022/03/27 08:50:58;;;;;;;21.70;14.80;;;14.50;48.00;;;;;;5045930;28;20045;-85
2022/03/27 08:53:56;;;;;;;22.52;15.32;;;14.70;47.90;;;;;;5047263;28;20025;-84
2022/03/27 08:56:26;;;;;;;22.23;14.32;;;14.90;46.90;;;;;;5014516;28;20046;-86
2022/03/27 08:58:55;;;;;;;24.95;15.35;;;14.90;47.10;;;;;;5047236;28;20033;-83
2022/03/27 09:01:21;;;;;;;25.38;15.90;;;15.10;46.90;;;;;;5046519;28;20037;-85
2022/03/27 09:03:47;;;;;;;24.85;15.68;;;15.10;46.60;;;;;;5037525;28;20336;-84
2022/03/27 09:06:15;;;;;;;21.05;14.18;;;15.20;46.40;;;;;;5026318;28;20025;-85
2022/03/27 09:08:41;;;;;;;25.52;15.75;;;15.40;46.30;;;;;;5041803;28;20045;-81
2022/03/27 09:11:15;;;;;;;28.20;15.52;;;15.60;45.60;;;;;;5041093;28;20081;-81
2022/03/27 09:13:45;;;;;;;30.48;17.23;;;15.80;45.10;;;;;;5036292;28;20049;-83
2022/03/27 09:16:12;;;;;;;29.17;17.98;;;16.00;44.60;;;;;;5034784;28;20022;-84
2022/03/27 09:18:50;;;;;;;28.35;17.08;;;16.00;44.20;;;;;;5021267;28;20022;-84
2022/03/27 09:21:21;;;;;;;28.60;16.45;;;15.90;44.20;;;;;;5036586;28;20026;-84
2022/03/27 09:23:56;;;;;;;26.35;15.77;;;15.90;44.70;;;;;;5037888;28;20401;-85
2022/03/27 09:26:22;;;;;;;28.45;17.33;;;16.10;44.50;;;;;;5033692;28;20093;-84
2022/03/27 09:28:50;;;;;;;28.52;17.58;;;16.10;44.20;;;;;;5036955;28;20084;-82
2022/03/27 09:31:17;;;;;;;26.08;16.85;;;16.10;44.00;;;;;;5050793;28;20030;-84
2022/03/27 09:33:47;;;;;;;27.38;16.42;;;16.30;43.90;;;;;;5037984;28;20097;-83
2022/03/27 09:36:23;;;;;;;26.95;17.70;;;16.60;43.20;;;;;;5037511;28;20026;-81
2022/03/27 09:39:15;;;;;;;23.15;14.73;;;16.70;42.60;;;;;;5035670;28;20105;-83
2022/03/27 09:42:03;;;;;;;22.25;15.40;;;17.20;42.70;;;;;;5053464;28;20355;-84
2022/03/27 09:44:29;;;;;;;27.60;16.33;;;17.50;42.00;;;;;;5048404;28;20397;-84
2022/03/27 09:47:00;;;;;;;25.05;16.65;;;17.60;41.50;;;;;;5047973;28;20036;-85
2022/03/27 09:49:35;;;;;;;26.13;16.77;;;17.90;41.30;;;;;;5047798;28;20021;-86
2022/03/27 09:52:08;;;;;;;25.48;14.77;;;18.00;40.80;;;;;;5050334;28;20014;-81
2022/03/27 09:54:57;;;;;;;21.90;15.18;;;18.30;40.80;;;;;;5044487;28;20090;-85
2022/03/27 09:57:30;;;;;;;30.08;19.25;;;18.60;40.10;;;;;;5029415;28;20022;-85
2022/03/27 10:00:18;;;;;;;30.92;18.45;;;18.60;40.00;;;;;;5034992;28;20112;-84
2022/03/27 10:02:45;;;;;;;28.52;17.02;;;18.40;39.80;;;;;;5042001;28;20053;-84
2022/03/27 10:05:16;;;;;;;26.90;18.17;;;18.20;40.60;;;;;;5033653;28;20048;-84
2022/03/27 10:07:48;;;;;;;27.65;17.45;;;18.20;40.90;;;;;;5024169;28;20026;-84
2022/03/27 10:10:22;;;;;;;32.60;19.25;;;18.10;40.50;;;;;;5024040;28;20140;-83
2022/03/27 10:12:52;;;;;;;34.30;19.23;;;18.00;40.90;;;;;;5026955;28;20058;-83
2022/03/27 10:15:25;;;;;;;28.50;17.85;;;17.70;41.70;;;;;;5032564;28;20077;-83
2022/03/27 10:17:58;;;;;;;29.80;17.98;;;17.70;42.20;;;;;;5024246;28;20026;-82
2022/03/27 10:20:28;;;;;;;30.23;18.83;;;17.60;42.00;;;;;;5032704;28;20033;-83
2022/03/27 10:23:03;;;;;;;27.58;18.52;;;17.50;42.50;;;;;;5040127;28;20026;-85
2022/03/27 10:25:40;;;;;;;26.00;17.52;;;17.60;42.20;;;;;;5032667;28;20025;-82
2022/03/27 10:28:07;;;;;;;30.55;19.05;;;17.80;42.60;;;;;;5024717;28;20026;-84
2022/03/27 10:30:34;;;;;;;30.35;18.83;;;18.00;41.80;;;;;;5022381;28;20044;-84
2022/03/27 10:33:01;;;;;;;32.50;18.73;;;18.20;41.30;;;;;;5026690;28;20026;-84
2022/03/27 10:35:52;;;;;;;34.83;20.10;;;18.20;41.20;;;;;;5020410;28;20049;-84
2022/03/27 10:38:42;;;;;;;33.47;20.15;;;18.10;41.00;;;;;;5024448;28;20088;-85
2022/03/27 10:41:24;;;;;;;29.35;17.92;;;18.00;41.70;;;;;;5024947;28;20447;-84
2022/03/27 10:44:27;;;;;;;29.88;18.55;;;18.10;41.60;;;;;;5025077;28;20034;-83
2022/03/27 10:47:20;;;;;;;30.63;18.58;;;18.40;41.30;;;;;;5031564;28;20033;-83
2022/03/27 10:50:01;;;;;;;40.50;19.88;;;18.50;40.60;;;;;;5020023;28;20043;-83
2022/03/27 10:52:43;;;;;;;28.92;18.08;;;18.50;40.80;;;;;;5040032;28;20041;-83
2022/03/27 10:55:15;;;;;;;26.38;16.73;;;18.50;40.20;;;;;;5043257;28;20025;-83
2022/03/27 10:57:42;;;;;;;28.27;17.40;;;18.90;40.10;;;;;;5043554;28;20026;-83
2022/03/27 11:00:10;;;;;;;26.83;18.05;;;19.00;38.60;;;;;;5047718;28;20071;-83
2022/03/27 11:02:50;;;;;;;27.23;16.98;;;19.00;37.60;;;;;;5047064;28;20108;-84
2022/03/27 11:05:51;;;;;;;25.40;17.40;;;19.00;37.40;;;;;;5041032;28;20042;-84
2022/03/27 11:08:17;;;;;;;23.65;15.27;;;18.90;37.30;;;;;;5021648;28;20455;-85
2022/03/27 11:10:44;;;;;;;23.42;16.13;;;19.00;37.30;;;;;;5015969;28;20470;-85
2022/03/27 11:13:31;;;;;;;26.58;15.95;;;19.00;37.00;;;;;;5016483;28;20490;-85
2022/03/27 11:16:08;;;;;;;21.67;15.55;;;19.20;37.20;;;;;;5047517;28;20044;-83
2022/03/27 11:18:40;;;;;;;23.05;15.20;;;19.60;36.50;;;;;;5053351;28;20017;-84
2022/03/27 11:21:07;;;;;;;21.52;14.45;;;19.70;35.50;;;;;;5028087;28;20029;-85
2022/03/27 11:23:38;;;;;;;22.40;14.88;;;19.90;35.60;;;;;;5016520;28;20057;-85
2022/03/27 11:26:29;;;;;;;24.60;16.08;;;19.90;34.90;;;;;;5015985;28;20601;-84
2022/03/27 11:29:22;;;;;;;26.03;13.97;;;19.90;34.90;;;;;;5014622;28;20048;-84
2022/03/27 11:32:09;;;;;;;24.23;16.00;;;20.10;34.40;;;;;;5017762;28;20110;-84
2022/03/27 11:34:38;;;;;;;21.60;14.85;;;20.20;33.20;;;;;;5022715;28;20031;-86
2022/03/27 11:37:13;;;;;;;23.60;14.98;;;20.00;33.10;;;;;;5033706;28;20415;-84
2022/03/27 11:39:40;;;;;;;25.00;15.52;;;19.90;32.70;;;;;;5032075;28;20026;-83
2022/03/27 11:42:28;;;;;;;22.35;15.48;;;19.90;32.60;;;;;;5030575;28;20037;-85
2022/03/27 11:45:18;;;;;;;22.02;14.30;;;19.90;33.00;;;;;;5054899;23;20456;-79
2022/03/27 11:47:55;;;;;;;19.95;13.88;;;19.80;33.50;;;;;;5038005;28;20366;-79
2022/03/27 11:50:32;;;;;;;24.75;15.35;;;20.10;33.60;;;;;;5037712;28;20018;-78
2022/03/27 11:52:59;;;;;;;25.58;15.77;;;20.20;32.60;;;;;;5035780;28;20028;-77
2022/03/27 11:55:29;;;;;;;25.35;15.10;;;20.30;32.50;;;;;;5063446;28;20021;-77
2022/03/27 11:57:57;;;;;;;24.27;14.13;;;20.30;32.60;;;;;;5055731;28;20036;-79
2022/03/27 12:00:35;;;;;;;23.13;15.13;;;20.20;32.40;;;;;;5059904;28;20025;-79
2022/03/27 12:03:02;;;;;;;22.88;15.18;;;20.20;32.20;;;;;;5059534;28;20029;-79
2022/03/27 12:05:37;;;;;;;20.65;14.35;;;20.10;32.40;;;;;;5058444;28;20025;-78
2022/03/27 12:08:04;;;;;;;21.20;14.15;;;20.10;32.90;;;;;;5057221;28;20025;-79
2022/03/27 12:10:45;;;;;;;24.52;15.10;;;20.10;33.30;;;;;;5056482;28;20115;-78
2022/03/27 12:13:14;;;;;;;25.65;15.70;;;20.30;32.90;;;;;;5061623;28;20036;-79
2022/03/27 12:15:46;;;;;;;22.98;16.25;;;20.30;32.90;;;;;;5050919;28;20032;-78
2022/03/27 12:18:13;;;;;;;26.45;15.52;;;20.30;32.40;;;;;;5061779;28;20040;-78
2022/03/27 12:20:44;;;;;;;25.70;15.02;;;20.30;32.90;;;;;;5069547;28;20028;-78
2022/03/27 12:23:22;;;;;;;21.83;15.27;;;20.40;32.40;;;;;;5065183;28;20040;-78
2022/03/27 12:32:06;;;;;;;19.27;12.45;;;20.40;32.80;;;;;;5075287;28;20063;-77
2022/03/27 12:34:33;;;;;;;23.00;15.07;;;20.90;32.20;;;;;;5073121;28;20122;-78
2022/03/27 12:37:26;;;;;;;20.85;13.27;;;21.00;31.90;;;;;;5069507;28;20115;-78
2022/03/27 12:39:51;;;;;;;22.77;14.10;;;20.90;32.10;;;;;;5060618;28;20049;-77
2022/03/27 12:42:32;;;;;;;19.20;13.38;;;21.00;31.10;;;;;;5062744;28;20064;-78
2022/03/27 12:45:07;;;;;;;24.58;14.00;;;20.90;31.20;;;;;;5072067;28;20255;-77
2022/03/27 12:47:40;;;;;;;19.17;13.55;;;20.90;31.20;;;;;;5074798;28;20040;-77
2022/03/27 12:50:09;;;;;;;24.23;15.38;;;20.60;31.30;;;;;;5071947;28;20029;-78
2022/03/27 12:52:53;;;;;;;21.80;14.35;;;20.60;31.70;;;;;;5059574;28;20033;-78
2022/03/27 12:55:19;;;;;;;22.05;13.57;;;20.70;32.10;;;;;;5057598;28;20033;-78
2022/03/27 12:57:50;;;;;;;24.25;13.88;;;21.00;31.40;;;;;;5057927;28;20024;-79
2022/03/27 13:00:17;;;;;;;28.48;15.57;;;20.80;31.50;;;;;;5058052;28;20009;-78